Time;durP1;ratioP1;P1;durP2;ratioP2;P2;SDS_P1;SDS_P2;PMS_P1;PMS_P2;Temp;Humidity;BMP_temperature;BMP_pressure;BME280_temperature;BME280_humidity;BME280_pressure;Samples;Min_cycle;Max_cycle;Signal;HPM_P1;HPM_P2
2021/04/10 00:02:25;;;;;;;8.30;3.77;;;;;;;;;;4944920;28;20577;-62
2021/04/10 00:04:51;;;;;;;8.77;2.80;;;;;;;;;;4946801;28;20215;-63
2021/04/10 00:07:17;;;;;;;6.77;3.00;;;;;;;;;;4948657;28;20310;-63
2021/04/10 00:09:43;;;;;;;4.03;2.80;;;;;;;;;;4952383;28;20233;-63
2021/04/10 00:12:09;;;;;;;8.87;2.90;;;;;;;;;;4952998;28;20322;-64
2021/04/10 00:14:35;;;;;;;6.67;2.50;;;;;;;;;;4950056;28;20191;-65
2021/04/10 00:17:01;;;;;;;5.90;2.50;;;;;;;;;;4948871;28;20210;-63
2021/04/10 00:19:27;;;;;;;4.03;2.83;;;;;;;;;;4953618;28;20716;-62
2021/04/10 00:21:53;;;;;;;6.63;2.33;;;;;;;;;;4953425;28;20210;-65
2021/04/10 00:24:19;;;;;;;3.70;2.60;;;;;;;;;;4952561;29;20191;-65
2021/04/10 00:26:45;;;;;;;3.93;2.63;;;;;;;;;;4948428;28;20219;-64
2021/04/10 00:29:11;;;;;;;4.07;2.50;;;;;;;;;;4949828;29;20218;-63
2021/04/10 00:31:37;;;;;;;4.87;2.30;;;;;;;;;;4949791;28;20203;-63
2021/04/10 00:34:03;;;;;;;6.10;2.60;;;;;;;;;;4950062;28;20649;-64
2021/04/10 00:36:29;;;;;;;3.50;2.50;;;;;;;;;;4949669;28;20187;-64
2021/04/10 00:38:55;;;;;;;5.93;2.63;;;;;;;;;;4948557;29;20182;-66
2021/04/10 00:41:22;;;;;;;5.90;2.27;;;;;;;;;;4946647;29;20228;-64
2021/04/10 00:43:48;;;;;;;4.23;2.50;;;;;;;;;;4951707;29;20191;-62
2021/04/10 00:46:15;;;;;;;3.43;2.20;;;;;;;;;;4951110;28;20205;-65
2021/04/10 00:48:41;;;;;;;5.10;2.40;;;;;;;;;;4945014;28;20206;-64
2021/04/10 00:51:07;;;;;;;4.47;2.90;;;;;;;;;;4952547;28;20210;-63
2021/04/10 00:53:34;;;;;;;5.93;2.70;;;;;;;;;;4951921;28;20909;-63
2021/04/10 00:56:01;;;;;;;2.87;2.53;;;;;;;;;;4950462;28;20271;-64
2021/04/10 00:58:27;;;;;;;4.13;2.77;;;;;;;;;;4950484;28;20748;-64
2021/04/10 01:00:54;;;;;;;5.40;2.80;;;;;;;;;;4952119;28;20226;-64
2021/04/10 01:03:21;;;;;;;3.50;2.70;;;;;;;;;;4954499;28;20229;-64
2021/04/10 01:05:47;;;;;;;3.93;2.57;;;;;;;;;;4952096;28;20717;-64
2021/04/10 01:08:14;;;;;;;4.63;2.30;;;;;;;;;;4960770;29;20246;-64
2021/04/10 01:10:40;;;;;;;4.60;2.73;;;;;;;;;;4961408;28;20206;-63
2021/04/10 01:13:25;;;;;;;4.10;2.40;;;;;;;;;;4947778;28;20875;-63
2021/04/10 01:16:03;;;;;;;7.97;2.27;;;;;;;;;;4950456;29;20190;-64
2021/04/10 01:18:43;;;;;;;2.43;1.93;;;;;;;;;;4950787;28;20187;-63
2021/04/10 01:21:29;;;;;;;5.50;2.07;;;;;;;;;;4944931;28;20210;-63
2021/04/10 01:24:16;;;;;;;6.33;2.40;;;;;;;;;;4951706;28;20190;-65
2021/04/10 01:27:01;;;;;;;3.50;2.37;;;;;;;;;;4945713;28;20210;-63
2021/04/10 01:29:27;;;;;;;2.53;2.00;;;;;;;;;;4944710;29;20686;-64
2021/04/10 01:31:55;;;;;;;5.20;2.50;;;;;;;;;;4948532;28;20214;-63
2021/04/10 01:34:27;;;;;;;2.80;2.27;;;;;;;;;;4950085;28;20590;-64
2021/04/10 01:36:54;;;;;;;3.57;2.20;;;;;;;;;;4949900;28;20191;-63
2021/04/10 01:39:20;;;;;;;5.73;2.00;;;;;;;;;;4951764;28;20191;-64
2021/04/10 01:41:48;;;;;;;4.60;2.50;;;;;;;;;;4947473;28;20265;-62
2021/04/10 01:44:15;;;;;;;2.47;2.13;;;;;;;;;;4950531;28;20577;-64
2021/04/10 01:46:41;;;;;;;5.13;2.70;;;;;;;;;;4952489;28;20212;-63
2021/04/10 01:49:07;;;;;;;6.70;2.33;;;;;;;;;;4948580;29;20179;-64
2021/04/10 01:51:34;;;;;;;6.30;2.23;;;;;;;;;;4943217;29;20699;-63
2021/04/10 01:54:01;;;;;;;8.37;2.40;;;;;;;;;;4945195;28;20187;-63
2021/04/10 01:56:28;;;;;;;3.30;2.43;;;;;;;;;;4948784;28;20306;-64
2021/04/10 01:58:54;;;;;;;4.20;2.20;;;;;;;;;;4953263;28;20550;-63
2021/04/10 02:01:21;;;;;;;2.40;2.00;;;;;;;;;;4945849;28;20310;-63
2021/04/10 02:03:47;;;;;;;3.20;2.30;;;;;;;;;;4949885;28;20238;-63
2021/04/10 02:06:14;;;;;;;4.93;2.20;;;;;;;;;;4949935;28;20191;-63
2021/04/10 02:08:44;;;;;;;5.53;2.23;;;;;;;;;;4947591;28;20186;-65
2021/04/10 02:11:11;;;;;;;3.37;2.40;;;;;;;;;;4948423;28;20203;-63
2021/04/10 02:13:38;;;;;;;3.97;1.87;;;;;;;;;;4945771;28;20562;-64
2021/04/10 02:16:05;;;;;;;5.67;2.33;;;;;;;;;;4947620;28;20183;-64
2021/04/10 02:18:31;;;;;;;6.70;2.30;;;;;;;;;;4944869;28;20187;-63
2021/04/10 02:21:00;;;;;;;7.17;2.00;;;;;;;;;;4940298;28;20290;-63
2021/04/10 02:23:27;;;;;;;5.33;2.20;;;;;;;;;;4948347;28;20270;-63
2021/04/10 02:25:53;;;;;;;5.53;2.20;;;;;;;;;;4945235;28;20187;-63
2021/04/10 02:28:19;;;;;;;3.43;1.97;;;;;;;;;;4952357;28;20183;-64
2021/04/10 02:30:45;;;;;;;3.40;2.23;;;;;;;;;;4950081;28;20210;-64
2021/04/10 02:33:40;;;;;;;6.43;2.50;;;;;;;;;;4950311;28;20237;-64
2021/04/10 02:36:09;;;;;;;4.37;1.90;;;;;;;;;;4924707;29;20208;-64
2021/04/10 02:38:36;;;;;;;6.03;2.00;;;;;;;;;;4926279;29;20222;-62
2021/04/10 02:41:05;;;;;;;3.50;1.90;;;;;;;;;;4925824;29;20253;-63
2021/04/10 02:43:33;;;;;;;2.97;2.17;;;;;;;;;;4926727;29;20981;-63
2021/04/10 02:46:01;;;;;;;4.97;2.07;;;;;;;;;;4923844;29;20199;-64
2021/04/10 02:48:33;;;;;;;5.83;1.90;;;;;;;;;;4925960;29;20199;-63
2021/04/10 02:51:00;;;;;;;4.07;2.30;;;;;;;;;;4930987;29;20262;-64
2021/04/10 02:53:26;;;;;;;5.27;2.50;;;;;;;;;;4933897;29;20789;-63
2021/04/10 02:55:57;;;;;;;2.77;2.10;;;;;;;;;;4933172;29;20211;-63
2021/04/10 02:58:23;;;;;;;4.17;1.97;;;;;;;;;;4930598;29;20223;-65
2021/04/10 03:00:49;;;;;;;5.93;2.17;;;;;;;;;;4928626;29;20256;-63
2021/04/10 03:03:16;;;;;;;2.50;1.90;;;;;;;;;;4934893;29;20218;-64
2021/04/10 03:05:44;;;;;;;3.53;2.30;;;;;;;;;;4930594;29;20211;-62
2021/04/10 03:08:10;;;;;;;5.53;2.10;;;;;;;;;;4935417;29;20288;-62
2021/04/10 03:10:37;;;;;;;3.20;2.20;;;;;;;;;;4926734;29;20220;-64
2021/04/10 03:13:04;;;;;;;3.70;1.97;;;;;;;;;;4945543;29;20203;-64
2021/04/10 03:15:30;;;;;;;4.20;2.17;;;;;;;;;;4948198;28;20275;-63
2021/04/10 03:17:56;;;;;;;9.80;2.10;;;;;;;;;;4956350;28;20198;-64
2021/04/10 03:20:22;;;;;;;5.03;2.40;;;;;;;;;;4955992;28;20293;-64
2021/04/10 03:22:49;;;;;;;2.87;1.93;;;;;;;;;;4956658;28;20712;-64
2021/04/10 03:25:16;;;;;;;2.30;1.60;;;;;;;;;;4955434;28;20187;-64
2021/04/10 03:27:42;;;;;;;2.20;2.00;;;;;;;;;;4956997;28;20183;-64
2021/04/10 03:30:10;;;;;;;4.50;2.17;;;;;;;;;;4952341;28;20209;-63
2021/04/10 03:32:36;;;;;;;6.30;2.50;;;;;;;;;;4954227;28;20681;-64
2021/04/10 03:35:03;;;;;;;5.93;1.97;;;;;;;;;;4950431;28;20270;-63
2021/04/10 03:37:29;;;;;;;3.53;1.90;;;;;;;;;;4956095;28;20274;-63
2021/04/10 03:39:55;;;;;;;4.00;2.10;;;;;;;;;;4953052;28;20218;-63
2021/04/10 03:42:25;;;;;;;3.47;2.07;;;;;;;;;;4954141;28;20210;-65
2021/04/10 03:44:51;;;;;;;4.60;2.30;;;;;;;;;;4952351;28;20183;-63
2021/04/10 03:47:17;;;;;;;3.50;2.00;;;;;;;;;;4955489;28;20203;-63
2021/04/10 03:49:43;;;;;;;4.93;2.23;;;;;;;;;;4952206;28;20194;-62
2021/04/10 03:52:09;;;;;;;3.40;2.13;;;;;;;;;;4952732;28;20182;-63
2021/04/10 03:54:35;;;;;;;3.73;2.10;;;;;;;;;;4949935;29;20194;-64
2021/04/10 03:57:01;;;;;;;2.13;1.90;;;;;;;;;;4955831;29;20202;-64
2021/04/10 03:59:28;;;;;;;3.70;2.10;;;;;;;;;;4951942;28;20226;-63
2021/04/10 04:01:54;;;;;;;4.17;2.10;;;;;;;;;;4947462;29;20593;-62
2021/04/10 04:04:19;;;;;;;3.80;2.10;;;;;;;;;;4950165;28;20191;-63
2021/04/10 04:06:45;;;;;;;4.27;1.90;;;;;;;;;;4955548;28;20297;-63
2021/04/10 04:09:11;;;;;;;5.10;2.27;;;;;;;;;;4964893;28;20185;-63
2021/04/10 04:11:37;;;;;;;5.07;2.00;;;;;;;;;;4951954;28;20590;-65
2021/04/10 04:14:03;;;;;;;3.03;1.80;;;;;;;;;;4960595;28;20187;-63
2021/04/10 04:16:29;;;;;;;4.00;2.10;;;;;;;;;;4954696;28;20194;-64
2021/04/10 04:18:55;;;;;;;4.67;2.20;;;;;;;;;;4947604;28;20189;-64
2021/04/10 04:21:21;;;;;;;4.23;2.20;;;;;;;;;;4947308;28;20226;-64
2021/04/10 04:23:47;;;;;;;4.67;2.00;;;;;;;;;;4948609;29;20210;-64
2021/04/10 04:26:13;;;;;;;3.40;2.10;;;;;;;;;;4950276;28;20599;-64
2021/04/10 04:28:39;;;;;;;7.07;2.20;;;;;;;;;;4947728;28;20184;-64
2021/04/10 04:31:05;;;;;;;5.40;2.00;;;;;;;;;;4946835;28;20681;-62
2021/04/10 04:33:31;;;;;;;3.43;2.47;;;;;;;;;;4948632;28;20195;-63
2021/04/10 04:35:57;;;;;;;4.87;2.33;;;;;;;;;;4950552;28;20269;-63
2021/04/10 04:38:23;;;;;;;2.13;1.73;;;;;;;;;;4949864;28;20240;-65
2021/04/10 04:40:49;;;;;;;4.03;2.30;;;;;;;;;;4946892;28;20199;-65
2021/04/10 04:43:15;;;;;;;3.23;2.00;;;;;;;;;;4952291;28;20592;-63
2021/04/10 04:45:41;;;;;;;3.73;1.90;;;;;;;;;;4952197;28;20191;-63
2021/04/10 04:48:08;;;;;;;3.67;2.00;;;;;;;;;;4951693;28;20650;-63
2021/04/10 04:50:34;;;;;;;4.37;2.07;;;;;;;;;;4951020;28;20207;-64
2021/04/10 04:53:00;;;;;;;5.23;1.70;;;;;;;;;;4948097;28;20218;-64
2021/04/10 04:55:26;;;;;;;3.80;2.20;;;;;;;;;;4951726;28;20223;-63
2021/04/10 04:57:52;;;;;;;4.53;2.13;;;;;;;;;;4947132;28;20657;-64
2021/04/10 05:00:18;;;;;;;4.93;2.37;;;;;;;;;;4951340;28;20314;-63
2021/04/10 05:02:44;;;;;;;4.37;2.80;;;;;;;;;;4950699;28;20810;-64
2021/04/10 05:05:10;;;;;;;3.67;2.30;;;;;;;;;;4952203;28;20625;-64
2021/04/10 05:07:36;;;;;;;5.83;2.40;;;;;;;;;;4949062;28;20557;-65
2021/04/10 05:10:03;;;;;;;3.13;2.30;;;;;;;;;;4950251;28;20206;-63
2021/04/10 05:12:29;;;;;;;2.20;2.00;;;;;;;;;;4950471;28;20253;-63
2021/04/10 05:14:55;;;;;;;5.00;2.40;;;;;;;;;;4948284;29;20198;-64
2021/04/10 05:17:21;;;;;;;5.70;2.40;;;;;;;;;;4948556;28;20198;-63
2021/04/10 05:19:47;;;;;;;5.13;2.30;;;;;;;;;;4949147;28;20199;-65
2021/04/10 05:22:13;;;;;;;3.13;2.40;;;;;;;;;;4948555;28;20211;-65
2021/04/10 05:24:39;;;;;;;2.70;2.40;;;;;;;;;;4952761;28;20562;-64
2021/04/10 05:27:05;;;;;;;5.50;2.37;;;;;;;;;;4947860;28;20202;-64
2021/04/10 05:29:31;;;;;;;4.23;2.50;;;;;;;;;;4948121;28;20635;-64
2021/04/10 05:31:57;;;;;;;3.40;2.23;;;;;;;;;;4951848;28;20289;-64
2021/04/10 05:34:23;;;;;;;4.07;2.27;;;;;;;;;;4949181;28;20545;-64
2021/04/10 05:36:49;;;;;;;6.37;2.60;;;;;;;;;;4949611;28;20210;-63
2021/04/10 05:39:15;;;;;;;6.43;2.50;;;;;;;;;;4952022;28;20685;-63
2021/04/10 05:41:41;;;;;;;4.53;2.60;;;;;;;;;;4950787;28;20209;-65
2021/04/10 05:44:07;;;;;;;3.93;2.20;;;;;;;;;;4952009;28;20250;-65
2021/04/10 05:46:33;;;;;;;2.90;2.63;;;;;;;;;;4951232;28;20533;-65
2021/04/10 05:48:59;;;;;;;5.50;2.47;;;;;;;;;;4949523;28;20182;-65
2021/04/10 05:51:25;;;;;;;3.83;2.60;;;;;;;;;;4953121;28;20195;-65
2021/04/10 05:53:51;;;;;;;2.97;2.67;;;;;;;;;;4951675;28;20323;-65
2021/04/10 05:56:17;;;;;;;2.83;2.50;;;;;;;;;;4947116;28;20193;-65
2021/04/10 05:58:43;;;;;;;3.77;2.17;;;;;;;;;;4948302;28;20196;-65
2021/04/10 06:01:09;;;;;;;4.20;2.80;;;;;;;;;;4949665;29;20240;-65
2021/04/10 06:03:35;;;;;;;2.53;2.33;;;;;;;;;;4948493;28;20211;-65
2021/04/10 06:06:01;;;;;;;3.67;2.20;;;;;;;;;;4942653;28;20675;-64
2021/04/10 06:08:27;;;;;;;5.00;2.50;;;;;;;;;;4950378;28;20210;-66
2021/04/10 06:10:53;;;;;;;3.83;2.50;;;;;;;;;;4948672;28;20246;-67
2021/04/10 06:13:20;;;;;;;5.67;2.47;;;;;;;;;;4944876;28;20695;-68
2021/04/10 06:15:46;;;;;;;3.77;2.23;;;;;;;;;;4948499;28;20236;-68
2021/04/10 06:18:12;;;;;;;5.47;2.40;;;;;;;;;;4945479;28;20266;-66
2021/04/10 06:20:38;;;;;;;7.17;2.70;;;;;;;;;;4949157;28;20214;-66
2021/04/10 06:23:05;;;;;;;5.33;2.47;;;;;;;;;;4945830;28;20218;-67
2021/04/10 06:25:31;;;;;;;5.47;2.17;;;;;;;;;;4945357;28;20191;-66
2021/04/10 06:27:57;;;;;;;4.87;2.60;;;;;;;;;;4949979;28;20846;-66
2021/04/10 06:30:23;;;;;;;5.43;2.50;;;;;;;;;;4942611;28;20241;-66
2021/04/10 06:32:49;;;;;;;4.90;2.70;;;;;;;;;;4940929;28;20195;-66
2021/04/10 06:35:15;;;;;;;6.17;3.00;;;;;;;;;;4950908;28;20265;-66
2021/04/10 06:37:42;;;;;;;3.33;2.23;;;;;;;;;;4947479;28;20193;-66
2021/04/10 06:40:08;;;;;;;2.90;2.50;;;;;;;;;;4948486;29;20203;-66
2021/04/10 06:42:34;;;;;;;2.93;2.43;;;;;;;;;;4948958;28;20242;-68
2021/04/10 06:45:00;;;;;;;3.13;2.13;;;;;;;;;;4948798;28;20245;-67
2021/04/10 06:47:29;;;;;;;4.03;2.07;;;;;;;;;;4946643;29;20522;-67
2021/04/10 06:49:56;;;;;;;4.30;2.00;;;;;;;;;;4947678;28;20187;-67
2021/04/10 06:52:22;;;;;;;3.37;2.70;;;;;;;;;;4951605;28;20253;-67
2021/04/10 06:55:03;;;;;;;2.57;1.80;;;;;;;;;;4951292;28;20266;-67
2021/04/10 06:57:33;;;;;;;4.63;2.13;;;;;;;;;;4950843;28;20282;-68
2021/04/10 07:00:05;;;;;;;5.30;2.07;;;;;;;;;;4942495;28;20218;-67
2021/04/10 07:02:32;;;;;;;2.77;1.97;;;;;;;;;;4946530;29;20940;-68
2021/04/10 07:04:59;;;;;;;3.80;2.63;;;;;;;;;;4946515;28;20186;-67
2021/04/10 07:07:25;;;;;;;2.90;2.20;;;;;;;;;;4950306;29;20218;-68
2021/04/10 07:09:51;;;;;;;3.67;2.70;;;;;;;;;;4951388;28;20238;-68
2021/04/10 07:12:18;;;;;;;4.13;2.70;;;;;;;;;;4968257;29;20191;-69
2021/04/10 07:14:44;;;;;;;6.30;3.07;;;;;;;;;;4966273;28;20274;-68
2021/04/10 07:17:12;;;;;;;3.30;2.57;;;;;;;;;;4950352;28;20219;-68
2021/04/10 07:19:38;;;;;;;4.00;2.50;;;;;;;;;;4967402;28;20194;-69
2021/04/10 07:22:09;;;;;;;3.43;2.43;;;;;;;;;;4964168;28;20345;-69
2021/04/10 07:24:38;;;;;;;3.87;2.50;;;;;;;;;;4948500;28;20191;-68
2021/04/10 07:27:05;;;;;;;3.90;2.87;;;;;;;;;;4944545;28;20195;-67
2021/04/10 07:29:42;;;;;;;3.83;2.40;;;;;;;;;;4951374;28;20188;-67
2021/04/10 07:32:24;;;;;;;3.43;2.30;;;;;;;;;;4948351;28;20293;-67
2021/04/10 07:34:51;;;;;;;4.57;2.67;;;;;;;;;;4943004;28;20194;-67
2021/04/10 07:37:34;;;;;;;3.00;2.10;;;;;;;;;;4948066;28;20195;-67
2021/04/10 07:40:20;;;;;;;4.57;2.50;;;;;;;;;;4950667;28;20218;-67
2021/04/10 07:42:47;;;;;;;4.67;2.60;;;;;;;;;;4950841;28;20275;-67
2021/04/10 07:45:22;;;;;;;2.80;2.50;;;;;;;;;;4952198;28;20271;-66
2021/04/10 07:47:49;;;;;;;4.57;2.40;;;;;;;;;;4951425;28;20750;-67
2021/04/10 07:50:18;;;;;;;3.33;2.40;;;;;;;;;;4948861;28;20207;-67
2021/04/10 07:52:44;;;;;;;2.50;2.30;;;;;;;;;;4953218;28;20191;-69
2021/04/10 07:55:30;;;;;;;3.43;2.40;;;;;;;;;;4952951;28;20218;-65
2021/04/10 07:58:16;;;;;;;4.33;2.50;;;;;;;;;;4945312;28;20269;-68
2021/04/10 08:00:42;;;;;;;2.37;2.07;;;;;;;;;;4951534;28;20255;-67
2021/04/10 08:03:20;;;;;;;2.93;2.63;;;;;;;;;;4951524;28;20298;-67
2021/04/10 08:05:46;;;;;;;7.60;3.03;;;;;;;;;;4950216;28;20186;-65
2021/04/10 08:08:17;;;;;;;3.03;2.63;;;;;;;;;;4947556;28;20187;-67
2021/04/10 08:10:44;;;;;;;4.30;2.27;;;;;;;;;;4952209;28;20199;-67
2021/04/10 08:13:10;;;;;;;3.93;2.33;;;;;;;;;;4949954;28;20191;-66
2021/04/10 08:15:36;;;;;;;3.67;2.37;;;;;;;;;;4947752;28;20187;-67
2021/04/10 08:18:20;;;;;;;4.63;3.07;;;;;;;;;;4951253;29;20218;-67
2021/04/10 08:20:49;;;;;;;7.73;2.63;;;;;;;;;;4949985;29;20245;-66
2021/04/10 08:23:22;;;;;;;4.03;3.07;;;;;;;;;;4949515;29;20579;-67
2021/04/10 08:25:48;;;;;;;2.73;2.50;;;;;;;;;;4947221;29;20609;-68
2021/04/10 08:28:15;;;;;;;3.77;2.37;;;;;;;;;;4951808;28;20202;-67
2021/04/10 08:30:43;;;;;;;4.60;2.70;;;;;;;;;;4950223;28;20212;-66
2021/04/10 08:33:09;;;;;;;7.70;2.87;;;;;;;;;;4950394;28;20189;-66
2021/04/10 08:35:35;;;;;;;4.07;3.13;;;;;;;;;;4952304;28;21742;-69
2021/04/10 08:38:03;;;;;;;3.43;2.50;;;;;;;;;;4945794;28;20241;-67
2021/04/10 08:40:30;;;;;;;3.63;2.40;;;;;;;;;;4945420;28;20864;-66
2021/04/10 08:42:57;;;;;;;4.37;2.90;;;;;;;;;;4948550;29;20234;-67
2021/04/10 08:45:31;;;;;;;3.10;2.30;;;;;;;;;;4947512;28;20229;-66
2021/04/10 08:48:01;;;;;;;2.67;2.47;;;;;;;;;;4947333;29;20187;-66
2021/04/10 08:50:28;;;;;;;2.97;2.60;;;;;;;;;;4946307;29;20203;-66
2021/04/10 08:52:54;;;;;;;4.10;2.77;;;;;;;;;;4945975;29;20234;-67
2021/04/10 08:55:20;;;;;;;3.83;2.47;;;;;;;;;;4949750;28;20958;-66
2021/04/10 08:57:47;;;;;;;5.77;2.70;;;;;;;;;;4950972;28;20198;-68
2021/04/10 09:00:17;;;;;;;3.10;2.33;;;;;;;;;;4949453;28;20211;-67
2021/04/10 09:02:52;;;;;;;3.93;2.40;;;;;;;;;;4950629;28;20646;-67
2021/04/10 09:05:18;;;;;;;4.23;2.37;;;;;;;;;;4948804;28;20269;-68
2021/04/10 09:07:44;;;;;;;6.07;2.67;;;;;;;;;;4950746;29;20183;-69
2021/04/10 09:10:11;;;;;;;3.47;2.50;;;;;;;;;;4948070;28;20290;-68
2021/04/10 09:12:37;;;;;;;4.67;3.10;;;;;;;;;;4950652;28;20568;-67
2021/04/10 09:15:07;;;;;;;3.50;2.70;;;;;;;;;;4943738;29;20192;-68
2021/04/10 09:17:52;;;;;;;3.10;2.80;;;;;;;;;;4947462;28;20215;-68
2021/04/10 09:20:18;;;;;;;2.83;2.57;;;;;;;;;;4947542;29;20578;-70
2021/04/10 09:22:44;;;;;;;2.80;2.50;;;;;;;;;;4951127;29;20206;-68
2021/04/10 09:25:10;;;;;;;3.30;3.00;;;;;;;;;;4949720;28;20264;-68
2021/04/10 09:27:36;;;;;;;4.90;2.50;;;;;;;;;;4949894;28;20552;-68
2021/04/10 09:30:05;;;;;;;4.23;3.27;;;;;;;;;;4948217;28;20214;-69
2021/04/10 09:32:36;;;;;;;5.83;4.47;;;;;;;;;;4950741;28;20249;-71
2021/04/10 09:35:05;;;;;;;5.17;2.80;;;;;;;;;;4949977;28;20226;-69
2021/04/10 09:37:31;;;;;;;2.27;2.03;;;;;;;;;;4947598;28;20195;-68
2021/04/10 09:40:04;;;;;;;4.33;2.60;;;;;;;;;;4950030;28;20293;-68
2021/04/10 09:45:09;;;;;;;2.17;2.00;;;;;;;;;;4943409;28;20652;-67
2021/04/10 09:47:55;;;;;;;2.33;2.13;;;;;;;;;;4948359;29;20190;-68
2021/04/10 09:50:31;;;;;;;2.87;2.30;;;;;;;;;;4951510;28;20207;-69
2021/04/10 09:53:00;;;;;;;4.50;2.10;;;;;;;;;;4946257;29;20195;-68
2021/04/10 09:55:28;;;;;;;3.70;1.77;;;;;;;;;;4951268;28;20193;-68
2021/04/10 09:58:01;;;;;;;4.37;2.20;;;;;;;;;;4937582;28;20210;-68
2021/04/10 10:00:28;;;;;;;3.10;1.90;;;;;;;;;;4951721;28;20239;-67
2021/04/10 10:02:54;;;;;;;2.53;1.90;;;;;;;;;;4945527;28;20203;-68
2021/04/10 10:05:21;;;;;;;2.80;2.33;;;;;;;;;;4947006;28;20201;-67
2021/04/10 10:07:47;;;;;;;3.50;2.03;;;;;;;;;;4947867;28;20238;-68
2021/04/10 10:10:14;;;;;;;4.97;2.53;;;;;;;;;;4948894;28;20206;-67
2021/04/10 10:12:40;;;;;;;2.00;1.90;;;;;;;;;;4948000;28;20187;-68
2021/04/10 10:15:22;;;;;;;4.33;2.07;;;;;;;;;;4949386;28;20226;-69
2021/04/10 10:17:48;;;;;;;4.07;2.43;;;;;;;;;;4959988;29;20199;-68
2021/04/10 10:20:15;;;;;;;5.40;2.30;;;;;;;;;;4965286;28;20210;-68
2021/04/10 10:22:41;;;;;;;3.73;1.97;;;;;;;;;;4960102;28;20207;-68
2021/04/10 10:25:08;;;;;;;2.03;1.77;;;;;;;;;;4960398;28;20193;-69
2021/04/10 10:27:38;;;;;;;3.90;2.47;;;;;;;;;;4966106;28;20664;-68
2021/04/10 10:30:17;;;;;;;2.53;1.90;;;;;;;;;;4948624;28;20207;-68
2021/04/10 10:32:44;;;;;;;4.07;2.20;;;;;;;;;;4950010;29;20197;-67
2021/04/10 10:35:11;;;;;;;2.57;2.13;;;;;;;;;;4953171;28;20191;-67
2021/04/10 10:37:37;;;;;;;2.30;2.00;;;;;;;;;;4946515;28;20676;-67
2021/04/10 10:40:03;;;;;;;7.07;3.17;;;;;;;;;;4956240;28;20206;-69
2021/04/10 10:42:29;;;;;;;5.07;2.50;;;;;;;;;;4948948;28;22077;-69
2021/04/10 10:44:55;;;;;;;2.23;1.60;;;;;;;;;;4946644;28;20276;-69
2021/04/10 10:47:24;;;;;;;4.23;1.80;;;;;;;;;;4951365;28;20194;-68
2021/04/10 10:49:51;;;;;;;2.27;2.07;;;;;;;;;;4948415;28;20182;-69
2021/04/10 10:52:18;;;;;;;2.40;2.00;;;;;;;;;;4953640;28;20205;-69
2021/04/10 10:54:46;;;;;;;2.13;1.97;;;;;;;;;;4950489;28;20238;-68
2021/04/10 10:57:14;;;;;;;4.33;2.03;;;;;;;;;;4948635;28;20175;-68
2021/04/10 10:59:40;;;;;;;3.10;1.90;;;;;;;;;;4947835;28;20275;-68
2021/04/10 11:02:07;;;;;;;2.03;1.83;;;;;;;;;;4957279;28;20264;-69
2021/04/10 11:04:35;;;;;;;2.93;1.80;;;;;;;;;;4955238;28;20282;-68
2021/04/10 11:07:02;;;;;;;2.23;2.03;;;;;;;;;;4954841;28;20183;-68
2021/04/10 11:09:29;;;;;;;5.22;1.88;;;;;;;;;;4950533;28;20217;-68
2021/04/10 11:11:57;;;;;;;3.30;1.90;;;;;;;;;;4974553;28;20198;-67
2021/04/10 11:14:25;;;;;;;3.20;2.15;;;;;;;;;;4952011;28;20814;-69
2021/04/10 11:16:51;;;;;;;2.45;1.52;;;;;;;;;;4955003;28;20194;-68
2021/04/10 11:19:29;;;;;;;2.55;1.60;;;;;;;;;;4962878;28;20202;-67
2021/04/10 11:21:55;;;;;;;6.25;1.83;;;;;;;;;;4962823;28;20280;-69
2021/04/10 11:24:22;;;;;;;1.83;1.73;;;;;;;;;;4951716;28;20527;-69
2021/04/10 11:26:55;;;;;;;2.08;1.88;;;;;;;;;;4954070;28;20622;-69
2021/04/10 11:29:21;;;;;;;1.60;1.40;;;;;;;;;;4957766;28;20973;-70
2021/04/10 11:32:06;;;;;;;2.25;2.05;;;;;;;;;;4951614;28;20210;-70
2021/04/10 11:34:33;;;;;;;4.10;1.70;;;;;;;;;;4945943;28;20254;-69
2021/04/10 11:36:59;;;;;;;3.67;1.80;;;;;;;;;;4951959;28;20197;-71
2021/04/10 11:39:25;;;;;;;1.90;1.70;;;;;;;;;;4949848;28;20237;-69
2021/04/10 11:41:53;;;;;;;2.55;1.60;;;;;;;;;;4947313;28;20206;-69
2021/04/10 11:44:20;;;;;;;1.98;1.52;;;;;;;;;;4952240;28;20187;-69
2021/04/10 11:46:47;;;;;;;1.85;1.75;;;;;;;;;;4952232;28;20666;-67
2021/04/10 11:49:25;;;;;;;7.07;1.65;;;;;;;;;;4948275;29;20679;-69
2021/04/10 11:51:51;;;;;;;3.45;1.92;;;;;;;;;;4948570;28;20220;-70
2021/04/10 11:54:30;;;;;;;3.28;1.45;;;;;;;;;;4954679;28;20194;-69
2021/04/10 11:56:56;;;;;;;2.40;1.55;;;;;;;;;;4947837;28;20183;-69
2021/04/10 11:59:30;;;;;;;2.42;2.03;;;;;;;;;;4948820;28;21637;-67
2021/04/10 12:02:00;;;;;;;2.13;1.92;;;;;;;;;;4955347;28;20206;-68
2021/04/10 12:04:27;;;;;;;1.50;1.40;;;;;;;;;;4955524;28;20201;-70
2021/04/10 12:07:03;;;;;;;2.47;1.75;;;;;;;;;;4953982;28;20253;-68
2021/04/10 12:09:29;;;;;;;3.50;1.60;;;;;;;;;;4951844;28;20178;-68
2021/04/10 12:11:59;;;;;;;5.43;2.72;;;;;;;;;;4951548;28;20872;-68
2021/04/10 12:14:25;;;;;;;4.88;2.95;;;;;;;;;;4945149;28;20211;-69
2021/04/10 12:16:51;;;;;;;3.92;2.08;;;;;;;;;;4952371;29;20191;-68
2021/04/10 12:19:17;;;;;;;4.63;2.35;;;;;;;;;;4947768;28;20629;-68
2021/04/10 12:21:44;;;;;;;15.63;9.77;;;;;;;;;;4949956;28;20202;-68
2021/04/10 12:24:10;;;;;;;6.80;2.30;;;;;;;;;;4952919;28;20589;-68
2021/04/10 12:26:37;;;;;;;5.95;2.88;;;;;;;;;;4950341;28;20544;-68
2021/04/10 12:29:03;;;;;;;6.15;4.20;;;;;;;;;;4950617;28;20179;-69
2021/04/10 12:31:29;;;;;;;2.85;1.50;;;;;;;;;;4948660;28;20195;-68
2021/04/10 12:33:55;;;;;;;4.63;1.50;;;;;;;;;;4955394;28;20182;-68
2021/04/10 12:36:21;;;;;;;3.38;1.83;;;;;;;;;;4960991;28;20214;-69
2021/04/10 12:38:47;;;;;;;2.28;1.30;;;;;;;;;;4959481;28;20197;-68
2021/04/10 12:41:14;;;;;;;2.08;1.13;;;;;;;;;;4958647;28;20210;-70
2021/04/10 12:43:40;;;;;;;4.90;3.30;;;;;;;;;;4960098;28;20917;-67
2021/04/10 12:46:07;;;;;;;8.30;5.95;;;;;;;;;;4960681;28;20234;-68
2021/04/10 12:48:33;;;;;;;12.85;7.72;;;;;;;;;;4948567;28;20183;-70
2021/04/10 12:50:59;;;;;;;2.97;1.92;;;;;;;;;;4947703;28;20944;-68
2021/04/10 12:53:25;;;;;;;5.28;4.13;;;;;;;;;;4946472;29;20331;-68
2021/04/10 12:55:51;;;;;;;7.55;4.28;;;;;;;;;;4950147;28;20217;-67
2021/04/10 12:58:17;;;;;;;2.03;1.23;;;;;;;;;;4949779;28;20246;-68
2021/04/10 13:00:44;;;;;;;1.65;1.48;;;;;;;;;;4946183;28;20312;-67
2021/04/10 13:03:10;;;;;;;2.05;1.50;;;;;;;;;;4945461;29;20202;-68
2021/04/10 13:05:36;;;;;;;1.65;1.20;;;;;;;;;;4944386;28;20202;-69
2021/04/10 13:08:01;;;;;;;1.98;0.90;;;;;;;;;;4950544;28;20183;-68
2021/04/10 13:10:28;;;;;;;2.40;1.00;;;;;;;;;;4950955;28;20579;-69
2021/04/10 13:12:54;;;;;;;1.88;1.20;;;;;;;;;;4950616;28;20249;-67
2021/04/10 13:15:21;;;;;;;2.50;2.30;;;;;;;;;;4949744;28;20658;-68
2021/04/10 13:17:47;;;;;;;3.10;1.30;;;;;;;;;;4945916;28;20274;-67
2021/04/10 13:20:15;;;;;;;3.55;1.20;;;;;;;;;;4947728;29;20209;-67
2021/04/10 13:22:41;;;;;;;2.70;1.42;;;;;;;;;;4952023;28;20246;-69
2021/04/10 13:25:10;;;;;;;6.07;1.88;;;;;;;;;;4963866;28;20206;-69
2021/04/10 13:27:36;;;;;;;3.85;2.50;;;;;;;;;;4961034;28;20187;-68
2021/04/10 13:30:03;;;;;;;3.78;1.08;;;;;;;;;;4953223;28;20185;-69
2021/04/10 13:32:29;;;;;;;1.20;0.75;;;;;;;;;;4954449;28;20555;-68
2021/04/10 13:34:55;;;;;;;2.55;1.05;;;;;;;;;;4956042;28;20186;-67
2021/04/10 13:37:21;;;;;;;3.03;0.80;;;;;;;;;;4952945;28;20202;-67
2021/04/10 13:39:47;;;;;;;4.30;1.10;;;;;;;;;;4945160;28;20194;-68
2021/04/10 13:42:13;;;;;;;1.50;0.88;;;;;;;;;;4950305;28;20222;-65
2021/04/10 13:44:39;;;;;;;10.95;1.38;;;;;;;;;;4948972;28;20185;-66
2021/04/10 13:47:05;;;;;;;1.73;1.20;;;;;;;;;;4948647;28;20269;-66
2021/04/10 13:49:31;;;;;;;3.42;0.77;;;;;;;;;;4943656;28;20269;-66
2021/04/10 13:51:57;;;;;;;3.03;2.35;;;;;;;;;;4946733;28;20674;-66
2021/04/10 13:54:23;;;;;;;4.72;4.10;;;;;;;;;;4950071;28;20191;-66
2021/04/10 13:56:49;;;;;;;1.85;1.30;;;;;;;;;;4950826;28;20211;-68
2021/04/10 13:59:15;;;;;;;2.30;1.35;;;;;;;;;;4946767;28;20206;-66
2021/04/10 14:01:41;;;;;;;1.05;0.40;;;;;;;;;;4949894;28;20207;-67
2021/04/10 14:04:08;;;;;;;3.60;1.10;;;;;;;;;;4949329;28;20565;-66
2021/04/10 14:06:34;;;;;;;1.23;0.55;;;;;;;;;;4943868;28;20211;-67
2021/04/10 14:09:01;;;;;;;1.35;0.70;;;;;;;;;;4947608;28;20194;-66
2021/04/10 14:11:28;;;;;;;1.42;0.52;;;;;;;;;;4949068;29;20553;-67
2021/04/10 14:13:55;;;;;;;0.75;0.50;;;;;;;;;;4940193;29;20191;-65
2021/04/10 14:16:21;;;;;;;1.13;0.70;;;;;;;;;;4945538;29;20218;-67
2021/04/10 14:18:47;;;;;;;1.92;0.60;;;;;;;;;;4947280;28;20282;-66
2021/04/10 14:21:14;;;;;;;1.48;1.02;;;;;;;;;;4948616;28;20705;-68
2021/04/10 14:23:41;;;;;;;1.08;0.40;;;;;;;;;;4948843;28;20697;-67
2021/04/10 14:26:09;;;;;;;1.92;0.75;;;;;;;;;;4947036;28;20657;-65
2021/04/10 14:28:35;;;;;;;1.52;0.63;;;;;;;;;;4952303;28;20183;-67
2021/04/10 14:31:01;;;;;;;1.55;0.60;;;;;;;;;;4950574;28;20198;-66
2021/04/10 14:33:27;;;;;;;3.92;0.75;;;;;;;;;;4943651;28;20347;-65
2021/04/10 14:35:54;;;;;;;5.35;0.73;;;;;;;;;;4947608;28;20191;-66
2021/04/10 14:38:20;;;;;;;1.00;0.80;;;;;;;;;;4947153;28;20186;-66
2021/04/10 14:40:46;;;;;;;1.38;0.40;;;;;;;;;;4941810;28;20200;-67
2021/04/10 14:43:13;;;;;;;2.55;0.90;;;;;;;;;;4947866;28;20826;-66
2021/04/10 14:45:41;;;;;;;2.47;0.82;;;;;;;;;;4949011;28;20624;-64
2021/04/10 14:48:08;;;;;;;2.17;1.50;;;;;;;;;;4949530;29;20185;-66
2021/04/10 14:50:34;;;;;;;4.28;1.17;;;;;;;;;;4944709;28;20716;-67